Time;durP1;ratioP1;P1;durP2;ratioP2;P2;SDS_P1;SDS_P2;PMS_P1;PMS_P2;Temp;Humidity;BMP_temperature;BMP_pressure;BME280_temperature;BME280_humidity;BME280_pressure;Samples;Min_cycle;Max_cycle;Signal;HPM_P1;HPM_P2
2023/09/16 00:02:16;;;;;;;3.70;3.40;;;22.00;87.50;;;;;;5042797;28;20473;-69
2023/09/16 00:04:42;;;;;;;4.13;3.43;;;22.00;87.40;;;;;;5032323;28;20451;-69
2023/09/16 00:07:08;;;;;;;6.10;3.40;;;22.00;87.60;;;;;;5043205;28;20931;-70
2023/09/16 00:09:38;;;;;;;9.60;3.27;;;22.00;87.50;;;;;;5061473;28;20846;-69
2023/09/16 00:12:04;;;;;;;5.37;3.73;;;22.00;87.50;;;;;;5042989;28;20437;-70
2023/09/16 00:14:30;;;;;;;6.53;3.80;;;22.00;87.60;;;;;;5042635;28;21139;-69
2023/09/16 00:17:00;;;;;;;6.13;3.67;;;22.00;88.40;;;;;;5034667;28;20443;-70
2023/09/16 00:19:26;;;;;;;4.80;3.80;;;21.90;87.40;;;;;;5026767;28;20950;-70
2023/09/16 00:21:54;;;;;;;3.83;3.53;;;21.90;87.50;;;;;;5026441;28;21178;-70
2023/09/16 00:24:20;;;;;;;5.80;3.53;;;21.90;87.50;;;;;;5060714;28;20448;-69
2023/09/16 00:26:47;;;;;;;3.80;3.50;;;21.90;87.60;;;;;;5017589;28;20455;-69
2023/09/16 00:29:13;;;;;;;3.70;3.10;;;21.90;87.60;;;;;;5042739;28;20420;-70
2023/09/16 00:31:41;;;;;;;3.87;3.53;;;21.90;87.60;;;;;;5042973;28;20445;-70
2023/09/16 00:34:10;;;;;;;4.43;3.37;;;21.90;87.60;;;;;;5042319;28;20623;-69
2023/09/16 00:36:36;;;;;;;4.03;3.63;;;21.90;87.70;;;;;;5042227;28;21432;-70
2023/09/16 00:39:03;;;;;;;4.90;3.50;;;21.90;87.70;;;;;;5060381;28;20857;-69
2023/09/16 00:41:29;;;;;;;4.43;3.63;;;21.90;87.80;;;;;;5025409;28;21013;-69
2023/09/16 00:43:55;;;;;;;4.10;3.27;;;21.90;88.60;;;;;;5025759;28;20429;-69
2023/09/16 00:46:23;;;;;;;3.80;3.43;;;21.90;87.80;;;;;;5018967;28;20429;-69
2023/09/16 00:48:53;;;;;;;4.17;3.27;;;21.80;87.70;;;;;;5042183;28;20495;-68
2023/09/16 00:51:23;;;;;;;3.50;3.20;;;21.80;87.70;;;;;;5025468;28;20462;-69
2023/09/16 00:53:51;;;;;;;3.93;3.63;;;21.80;87.70;;;;;;5042132;28;20465;-69
2023/09/16 00:56:17;;;;;;;4.20;3.80;;;21.80;87.80;;;;;;5059419;28;20519;-69
2023/09/16 00:58:45;;;;;;;4.10;3.70;;;21.80;87.80;;;;;;5041799;28;21338;-69
2023/09/16 01:01:13;;;;;;;3.33;3.03;;;21.80;87.80;;;;;;5042051;28;20476;-69
2023/09/16 01:03:41;;;;;;;4.50;4.10;;;21.80;87.80;;;;;;5016335;28;20443;-70
2023/09/16 01:06:10;;;;;;;3.80;3.47;;;21.80;87.80;;;;;;5025649;28;20433;-69
2023/09/16 01:08:37;;;;;;;4.67;3.43;;;21.80;87.90;;;;;;5041729;28;20440;-69
2023/09/16 01:11:06;;;;;;;4.40;3.70;;;21.80;87.80;;;;;;5060038;28;20457;-69
2023/09/16 01:13:34;;;;;;;4.17;3.67;;;21.80;87.90;;;;;;5058707;28;20433;-69
2023/09/16 01:16:10;;;;;;;6.30;3.80;;;21.80;87.90;;;;;;5025614;28;20437;-69
2023/09/16 01:18:42;;;;;;;5.10;4.17;;;21.80;88.00;;;;;;5041846;28;21229;-69
2023/09/16 01:21:10;;;;;;;5.07;4.20;;;21.80;88.00;;;;;;5025757;28;20886;-70
2023/09/16 01:23:43;;;;;;;3.80;3.50;;;21.70;87.90;;;;;;5030453;28;20467;-69
2023/09/16 01:26:14;;;;;;;4.23;3.50;;;21.70;87.90;;;;;;5039251;28;21073;-69
2023/09/16 01:28:43;;;;;;;4.23;3.90;;;21.80;88.00;;;;;;5041895;28;20460;-70
2023/09/16 01:31:11;;;;;;;4.40;3.30;;;21.70;88.00;;;;;;5005441;28;20907;-69
2023/09/16 01:33:50;;;;;;;4.17;3.83;;;21.70;88.00;;;;;;5025241;28;20563;-68
2023/09/16 01:36:23;;;;;;;4.00;3.50;;;21.70;88.00;;;;;;5009690;28;20454;-69
2023/09/16 01:39:00;;;;;;;4.43;3.60;;;21.70;88.00;;;;;;5041595;28;20475;-69
2023/09/16 01:41:28;;;;;;;4.03;3.63;;;21.70;88.10;;;;;;5041420;28;20472;-68
2023/09/16 01:43:57;;;;;;;4.30;3.90;;;21.70;88.10;;;;;;5041893;28;20468;-69
2023/09/16 01:46:23;;;;;;;3.90;3.60;;;21.70;88.10;;;;;;5016312;28;20429;-70
2023/09/16 01:48:49;;;;;;;4.40;4.07;;;21.70;88.10;;;;;;5024764;28;20456;-69
2023/09/16 01:51:15;;;;;;;4.00;3.70;;;21.70;88.10;;;;;;5041478;28;21038;-69
2023/09/16 01:53:47;;;;;;;3.87;3.57;;;21.60;88.10;;;;;;5057882;28;20432;-69
2023/09/16 01:56:13;;;;;;;4.40;4.00;;;21.60;88.10;;;;;;5008492;28;20468;-69
2023/09/16 01:58:40;;;;;;;3.73;3.43;;;21.60;88.20;;;;;;5041183;28;20485;-70
2023/09/16 02:01:10;;;;;;;4.40;4.00;;;21.60;88.20;;;;;;5024980;28;20469;-69
2023/09/16 02:03:37;;;;;;;3.87;3.57;;;21.60;88.10;;;;;;5032233;28;21044;-69
2023/09/16 02:06:08;;;;;;;4.33;3.93;;;21.60;88.30;;;;;;5041558;28;20503;-69
2023/09/16 02:08:35;;;;;;;4.13;3.73;;;21.60;88.20;;;;;;5024848;28;20437;-70
2023/09/16 02:11:02;;;;;;;3.90;3.60;;;21.60;88.30;;;;;;5021161;28;20454;-68
2023/09/16 02:13:35;;;;;;;4.23;3.80;;;21.60;88.40;;;;;;5024622;28;20947;-69
2023/09/16 02:16:02;;;;;;;7.40;3.90;;;21.60;88.40;;;;;;5033342;28;20460;-68
2023/09/16 02:18:29;;;;;;;3.77;3.47;;;21.60;88.40;;;;;;5040940;28;20904;-70
2023/09/16 02:21:03;;;;;;;3.77;3.43;;;21.60;88.40;;;;;;5059298;28;20472;-69
2023/09/16 02:23:32;;;;;;;4.40;3.60;;;21.60;88.40;;;;;;5029588;28;20480;-68
2023/09/16 02:26:02;;;;;;;4.47;3.80;;;21.60;88.40;;;;;;5059102;28;20437;-69
2023/09/16 02:28:28;;;;;;;3.90;3.60;;;21.50;88.40;;;;;;5010321;28;20442;-68
2023/09/16 02:30:55;;;;;;;4.50;3.63;;;21.50;88.30;;;;;;5034444;28;20539;-69
2023/09/16 02:33:21;;;;;;;3.90;3.60;;;21.50;88.40;;;;;;5021337;28;20809;-69
2023/09/16 02:35:47;;;;;;;4.07;3.77;;;21.50;88.40;;;;;;5012116;28;20441;-69
2023/09/16 02:38:14;;;;;;;4.50;3.87;;;21.50;88.30;;;;;;5024869;28;20452;-69
2023/09/16 02:40:41;;;;;;;4.40;4.00;;;21.50;88.40;;;;;;5041240;28;20802;-69
2023/09/16 02:43:09;;;;;;;4.30;3.47;;;21.50;88.40;;;;;;5009017;28;20428;-69
2023/09/16 02:45:41;;;;;;;7.47;3.63;;;21.50;88.40;;;;;;5041381;28;20441;-69
2023/09/16 02:48:08;;;;;;;4.33;3.93;;;21.50;88.40;;;;;;5041585;28;20418;-69
2023/09/16 02:50:37;;;;;;;4.07;3.67;;;21.50;88.40;;;;;;5041050;28;20456;-69
2023/09/16 02:53:03;;;;;;;3.90;3.60;;;21.50;88.40;;;;;;5024314;28;20427;-69
2023/09/16 02:55:31;;;;;;;3.73;3.43;;;21.50;88.40;;;;;;5040544;28;20432;-70
2023/09/16 02:57:59;;;;;;;4.07;3.77;;;21.50;88.50;;;;;;5004692;28;20454;-69
2023/09/16 03:00:28;;;;;;;3.33;3.13;;;21.50;88.50;;;;;;5037613;28;20863;-69
2023/09/16 03:02:54;;;;;;;3.90;3.60;;;21.50;88.50;;;;;;5040916;28;21332;-69
2023/09/16 03:05:20;;;;;;;5.03;4.23;;;21.50;88.40;;;;;;5029591;28;20492;-69
2023/09/16 03:07:50;;;;;;;5.67;4.10;;;21.40;88.30;;;;;;5024662;28;20436;-69
2023/09/16 03:10:17;;;;;;;3.60;3.30;;;21.40;88.30;;;;;;5033699;28;20540;-69
2023/09/16 03:12:45;;;;;;;3.47;3.20;;;21.40;88.30;;;;;;5007427;28;20484;-68
2023/09/16 03:15:14;;;;;;;3.97;3.67;;;21.40;88.40;;;;;;5040465;28;20427;-70
2023/09/16 03:17:42;;;;;;;4.00;3.67;;;21.40;88.40;;;;;;5024094;28;20436;-70
2023/09/16 03:20:14;;;;;;;3.63;3.33;;;21.40;88.40;;;;;;5019403;28;20901;-69
2023/09/16 03:22:40;;;;;;;4.00;3.70;;;21.40;88.50;;;;;;5035699;28;20467;-69
2023/09/16 03:25:07;;;;;;;3.80;3.50;;;21.40;88.50;;;;;;5044096;28;20516;-69
2023/09/16 03:27:33;;;;;;;4.50;4.03;;;21.40;88.50;;;;;;5027538;28;20451;-69
2023/09/16 03:29:59;;;;;;;3.97;3.67;;;21.40;88.50;;;;;;5043908;28;20436;-69
2023/09/16 03:32:28;;;;;;;4.73;3.30;;;21.40;88.60;;;;;;5027251;28;20448;-69
2023/09/16 03:35:00;;;;;;;4.40;4.00;;;21.40;88.60;;;;;;5023915;28;20847;-69
2023/09/16 03:37:28;;;;;;;4.10;3.70;;;21.40;88.60;;;;;;5010494;28;20444;-68
2023/09/16 03:39:59;;;;;;;3.80;3.30;;;21.30;88.50;;;;;;5010967;28;20539;-69
2023/09/16 03:42:25;;;;;;;4.00;3.57;;;21.30;88.50;;;;;;5035957;28;21263;-69
2023/09/16 03:44:51;;;;;;;4.20;3.90;;;21.30;88.40;;;;;;5043728;28;20463;-69
2023/09/16 03:47:17;;;;;;;4.47;4.07;;;21.30;88.40;;;;;;5035695;28;20428;-69
2023/09/16 03:49:48;;;;;;;4.17;3.77;;;21.30;88.40;;;;;;5027224;28;20460;-69
2023/09/16 03:52:15;;;;;;;3.73;3.30;;;21.30;88.50;;;;;;5043886;28;20428;-68
2023/09/16 03:54:42;;;;;;;4.33;4.03;;;21.30;88.40;;;;;;5043946;28;20477;-69
2023/09/16 03:57:10;;;;;;;4.50;4.10;;;21.30;88.40;;;;;;5012670;28;20472;-69
2023/09/16 03:59:38;;;;;;;4.37;3.97;;;21.30;88.40;;;;;;5030077;28;20520;-69
2023/09/16 04:02:08;;;;;;;3.87;3.57;;;21.30;88.40;;;;;;5048171;28;20528;-70
2023/09/16 04:04:36;;;;;;;4.20;3.80;;;21.30;88.30;;;;;;5011804;28;20838;-69
2023/09/16 04:07:14;;;;;;;4.27;3.60;;;21.30;88.40;;;;;;5017559;28;20428;-69
2023/09/16 04:09:41;;;;;;;4.33;4.03;;;21.20;88.30;;;;;;5047564;28;20521;-69
2023/09/16 04:12:18;;;;;;;6.40;3.87;;;21.20;88.30;;;;;;5046637;28;20543;-74
2023/09/16 04:14:46;;;;;;;3.90;3.60;;;21.20;88.30;;;;;;5046252;28;20432;-71
2023/09/16 04:17:12;;;;;;;4.17;3.87;;;21.20;88.40;;;;;;5013748;28;20437;-71
2023/09/16 04:19:39;;;;;;;4.53;3.93;;;21.20;88.30;;;;;;5029225;28;20215;-74
2023/09/16 04:22:05;;;;;;;4.07;3.77;;;21.20;88.30;;;;;;5029226;28;20480;-74
2023/09/16 04:24:36;;;;;;;3.70;3.40;;;21.20;88.30;;;;;;5045151;28;20452;-69
2023/09/16 04:27:04;;;;;;;4.20;3.80;;;21.20;88.30;;;;;;5044277;28;20513;-69
2023/09/16 04:29:32;;;;;;;4.17;3.77;;;21.20;88.40;;;;;;5026674;28;21276;-69
2023/09/16 04:32:01;;;;;;;6.33;4.20;;;21.20;88.40;;;;;;5026164;28;20445;-69
2023/09/16 04:34:32;;;;;;;3.50;3.30;;;21.20;88.40;;;;;;5043170;28;20422;-69
2023/09/16 04:37:05;;;;;;;5.53;3.77;;;21.20;88.40;;;;;;5026984;28;20424;-68
2023/09/16 04:39:34;;;;;;;4.13;3.83;;;21.20;88.40;;;;;;5045005;28;20623;-69
2023/09/16 04:42:02;;;;;;;3.83;3.53;;;21.20;88.40;;;;;;5035404;28;20474;-69
2023/09/16 04:44:36;;;;;;;4.10;3.80;;;21.20;88.40;;;;;;5026344;28;20496;-69
2023/09/16 04:47:10;;;;;;;4.70;4.30;;;21.10;88.30;;;;;;5026563;28;20476;-69
2023/09/16 04:49:36;;;;;;;3.83;3.53;;;21.10;88.30;;;;;;5026318;28;20561;-69
2023/09/16 04:52:04;;;;;;;4.30;3.90;;;21.10;88.30;;;;;;5043060;28;20488;-69
2023/09/16 04:54:32;;;;;;;4.60;4.20;;;21.10;88.40;;;;;;5026645;28;20937;-68
2023/09/16 04:57:00;;;;;;;3.90;3.60;;;21.10;88.30;;;;;;5022938;28;20445;-69
2023/09/16 04:59:32;;;;;;;4.43;3.67;;;21.10;88.40;;;;;;5020619;28;20471;-69
2023/09/16 05:01:59;;;;;;;4.47;4.07;;;21.10;88.40;;;;;;5053192;28;20832;-69
2023/09/16 05:04:26;;;;;;;4.13;3.83;;;21.10;88.40;;;;;;5029485;28;20432;-69
2023/09/16 05:06:56;;;;;;;4.37;3.70;;;21.10;88.40;;;;;;5026756;28;20503;-69
2023/09/16 05:09:27;;;;;;;4.30;3.90;;;21.10;88.40;;;;;;5042211;28;20450;-69
2023/09/16 05:11:53;;;;;;;4.70;4.10;;;21.10;88.50;;;;;;5041885;28;20528;-69
2023/09/16 05:14:19;;;;;;;4.43;4.13;;;21.10;88.50;;;;;;5041223;28;20460;-70
2023/09/16 05:16:45;;;;;;;6.07;4.27;;;21.10;88.60;;;;;;5032626;28;21122;-69
2023/09/16 05:19:12;;;;;;;4.20;3.80;;;21.10;88.60;;;;;;5008218;28;20428;-69
2023/09/16 05:21:38;;;;;;;5.10;3.70;;;21.00;88.40;;;;;;5024620;28;20480;-68
2023/09/16 05:24:05;;;;;;;4.07;3.67;;;21.10;88.60;;;;;;5018042;28;20889;-69
2023/09/16 05:26:31;;;;;;;3.83;3.53;;;21.00;88.50;;;;;;5038879;28;20493;-68
2023/09/16 05:28:57;;;;;;;4.60;3.90;;;21.00;88.50;;;;;;5059328;28;20423;-69
2023/09/16 05:31:26;;;;;;;4.33;3.90;;;21.00;88.60;;;;;;5041278;28;20860;-69
2023/09/16 05:33:56;;;;;;;4.20;3.60;;;21.00;88.50;;;;;;5041672;28;20470;-68
2023/09/16 05:36:24;;;;;;;4.17;3.77;;;21.00;88.50;;;;;;5023916;28;20455;-73
2023/09/16 05:38:57;;;;;;;3.93;3.63;;;21.00;88.50;;;;;;5023063;28;20487;-76
2023/09/16 05:41:26;;;;;;;4.37;4.03;;;21.00;88.50;;;;;;5027006;28;20479;-78
2023/09/16 05:43:52;;;;;;;4.67;4.20;;;21.00;88.70;;;;;;5033392;28;20459;-73
2023/09/16 05:46:22;;;;;;;4.47;4.07;;;21.00;88.60;;;;;;5020915;28;20420;-73
2023/09/16 05:48:49;;;;;;;5.00;4.53;;;21.00;88.70;;;;;;5020173;28;20442;-73
2023/09/16 05:51:16;;;;;;;4.63;4.23;;;21.00;88.70;;;;;;5022702;28;21287;-73
2023/09/16 05:53:42;;;;;;;4.80;4.30;;;20.90;88.60;;;;;;5018543;28;20964;-73
2023/09/16 05:56:09;;;;;;;5.23;3.97;;;21.00;88.80;;;;;;5033645;28;20428;-72
2023/09/16 05:58:42;;;;;;;5.00;4.27;;;20.90;88.70;;;;;;5037802;28;20444;-74
2023/09/16 06:01:10;;;;;;;6.10;4.80;;;20.90;88.70;;;;;;5010799;28;20985;-72
2023/09/16 06:03:36;;;;;;;4.57;4.10;;;20.90;88.80;;;;;;5021200;28;20443;-71
2023/09/16 06:06:04;;;;;;;8.97;4.30;;;20.90;88.80;;;;;;5039330;28;20455;-72
2023/09/16 06:08:33;;;;;;;4.07;3.73;;;20.90;88.80;;;;;;5014338;28;21143;-71
2023/09/16 06:10:59;;;;;;;6.00;4.07;;;20.90;88.90;;;;;;5038870;28;20529;-71
2023/09/16 06:13:26;;;;;;;4.73;4.40;;;20.90;88.90;;;;;;5020458;28;20497;-71
2023/09/16 06:15:53;;;;;;;4.53;4.13;;;20.90;89.00;;;;;;5038856;28;20702;-72
2023/09/16 06:18:19;;;;;;;5.30;3.80;;;20.90;89.00;;;;;;5032787;23;20891;-76
2023/09/16 06:20:46;;;;;;;4.47;4.17;;;20.90;89.00;;;;;;5024387;28;20533;-76
2023/09/16 06:23:16;;;;;;;5.30;4.80;;;20.90;89.10;;;;;;5014002;28;20444;-76
2023/09/16 06:25:51;;;;;;;5.00;4.60;;;20.90;89.10;;;;;;5015829;28;21016;-76
2023/09/16 06:28:17;;;;;;;4.40;4.00;;;20.80;89.00;;;;;;5032449;28;20430;-76
2023/09/16 06:30:44;;;;;;;4.40;4.00;;;20.80;89.10;;;;;;5032617;28;20561;-76
2023/09/16 06:33:12;;;;;;;4.60;4.20;;;20.80;89.10;;;;;;5014661;28;20461;-76
2023/09/16 06:35:38;;;;;;;4.53;3.70;;;20.80;89.10;;;;;;5008289;28;20434;-74
2023/09/16 06:38:06;;;;;;;4.07;3.77;;;20.90;89.30;;;;;;5010021;28;20422;-75
2023/09/16 06:40:35;;;;;;;4.77;4.10;;;20.90;89.30;;;;;;5012530;28;20525;-74
2023/09/16 06:43:04;;;;;;;3.47;3.17;;;20.90;89.40;;;;;;5013644;28;20444;-75
2023/09/16 06:45:30;;;;;;;4.37;4.07;;;20.80;89.20;;;;;;5030880;28;20418;-75
2023/09/16 06:47:57;;;;;;;4.57;4.17;;;20.80;90.00;;;;;;5026448;28;20429;-74
2023/09/16 06:50:23;;;;;;;4.17;3.87;;;20.80;89.30;;;;;;5018045;28;20668;-74
2023/09/16 06:52:49;;;;;;;4.60;4.20;;;20.80;89.40;;;;;;5035210;28;21229;-74
2023/09/16 06:55:17;;;;;;;4.77;4.40;;;20.80;89.40;;;;;;5006509;28;20660;-74
2023/09/16 06:57:46;;;;;;;4.67;4.37;;;20.80;89.40;;;;;;5041509;28;20456;-74
2023/09/16 07:00:15;;;;;;;4.30;3.90;;;20.80;89.40;;;;;;5035569;28;20450;-74
2023/09/16 07:02:41;;;;;;;4.20;3.80;;;20.80;89.50;;;;;;5029188;28;20470;-74
2023/09/16 07:05:10;;;;;;;4.53;4.13;;;20.80;89.40;;;;;;5001445;28;20459;-74
2023/09/16 07:07:36;;;;;;;4.00;3.70;;;20.80;89.40;;;;;;5036385;28;20454;-74
2023/09/16 07:10:03;;;;;;;4.77;4.37;;;20.80;89.40;;;;;;5015657;28;20489;-74
2023/09/16 07:12:30;;;;;;;4.10;3.70;;;20.90;89.50;;;;;;5030974;28;20457;-74
2023/09/16 07:14:58;;;;;;;4.20;3.80;;;20.80;89.50;;;;;;5039039;28;20452;-74
2023/09/16 07:17:24;;;;;;;4.50;4.10;;;20.80;89.50;;;;;;5021585;28;20430;-75
2023/09/16 07:19:53;;;;;;;4.03;3.73;;;20.90;89.60;;;;;;5046621;28;20478;-74
2023/09/16 07:22:20;;;;;;;3.93;3.63;;;20.80;89.40;;;;;;5021898;28;20503;-74
2023/09/16 07:24:48;;;;;;;4.97;4.50;;;20.90;89.50;;;;;;5014099;28;21041;-74
2023/09/16 07:27:14;;;;;;;4.83;4.43;;;20.80;89.40;;;;;;5052443;28;20424;-73
2023/09/16 07:29:39;;;;;;;5.10;4.70;;;20.80;89.40;;;;;;5057597;28;20441;-72
2023/09/16 07:32:06;;;;;;;4.53;4.13;;;20.80;89.40;;;;;;5019474;28;21054;-71
2023/09/16 07:34:34;;;;;;;4.20;3.90;;;20.80;89.40;;;;;;5040808;28;20212;-75
2023/09/16 07:37:01;;;;;;;4.47;4.07;;;20.80;89.40;;;;;;5012285;28;20437;-75
2023/09/16 07:39:27;;;;;;;4.50;4.10;;;20.80;89.40;;;;;;5038396;28;20447;-77
2023/09/16 07:41:53;;;;;;;4.33;4.03;;;20.90;89.50;;;;;;5018874;28;20478;-74
2023/09/16 07:44:19;;;;;;;5.00;4.07;;;20.80;89.40;;;;;;5029057;28;21082;-75
2023/09/16 07:46:48;;;;;;;4.50;4.10;;;20.80;89.30;;;;;;4997118;28;20429;-74
2023/09/16 07:49:15;;;;;;;4.30;4.00;;;20.80;89.30;;;;;;5039068;28;21214;-74
2023/09/16 07:51:42;;;;;;;5.57;3.80;;;20.80;89.30;;;;;;5016417;28;20467;-75
2023/09/16 07:54:09;;;;;;;5.20;4.70;;;20.80;89.30;;;;;;5060037;28;20498;-75
2023/09/16 07:56:35;;;;;;;4.47;4.13;;;20.80;89.30;;;;;;5059427;28;20521;-75
2023/09/16 07:59:04;;;;;;;4.40;3.97;;;20.90;89.40;;;;;;5043473;28;20446;-74
2023/09/16 08:01:31;;;;;;;4.10;3.80;;;20.80;89.40;;;;;;5040779;28;20481;-73
2023/09/16 08:03:57;;;;;;;4.37;4.00;;;20.80;89.30;;;;;;5042843;28;20445;-72
2023/09/16 08:06:23;;;;;;;4.27;3.97;;;20.90;89.50;;;;;;5022408;28;20628;-73
2023/09/16 08:08:49;;;;;;;4.60;4.20;;;20.80;89.50;;;;;;5025609;28;20487;-71
2023/09/16 08:11:19;;;;;;;4.03;3.73;;;20.90;89.50;;;;;;5003838;28;20453;-74
2023/09/16 08:13:51;;;;;;;3.90;3.60;;;20.80;89.50;;;;;;5035842;28;20431;-73
2023/09/16 08:16:17;;;;;;;4.80;4.40;;;20.80;89.50;;;;;;5062105;28;20436;-74
2023/09/16 08:18:43;;;;;;;4.87;4.47;;;20.80;89.60;;;;;;5020419;28;20453;-75
2023/09/16 08:21:11;;;;;;;4.40;4.00;;;20.80;89.60;;;;;;5041158;28;21035;-75
2023/09/16 08:23:37;;;;;;;4.40;4.00;;;20.80;89.60;;;;;;5045930;28;20859;-75
2023/09/16 08:26:05;;;;;;;4.83;4.23;;;20.80;89.60;;;;;;5018084;28;20440;-73
2023/09/16 08:28:34;;;;;;;4.23;3.80;;;20.90;89.60;;;;;;5025222;28;20436;-73
2023/09/16 08:31:03;;;;;;;4.70;4.27;;;20.90;89.70;;;;;;5025137;28;20559;-73
2023/09/16 08:33:29;;;;;;;4.17;3.67;;;20.90;89.60;;;;;;5042917;28;21203;-74
2023/09/16 08:35:55;;;;;;;4.70;4.30;;;20.90;89.60;;;;;;5024386;28;20443;-73
2023/09/16 08:38:22;;;;;;;8.43;4.80;;;20.90;89.70;;;;;;5033385;28;21262;-74
2023/09/16 08:41:03;;;;;;;4.63;4.33;;;20.90;89.80;;;;;;5033480;28;20451;-76
2023/09/16 08:43:37;;;;;;;5.03;4.40;;;20.90;89.80;;;;;;5041282;28;20436;-75
2023/09/16 08:46:13;;;;;;;4.47;4.07;;;20.90;90.00;;;;;;5040527;28;20515;-73
2023/09/16 08:48:45;;;;;;;4.80;4.50;;;20.90;90.00;;;;;;5039300;28;20438;-76
2023/09/16 08:51:15;;;;;;;4.47;4.00;;;20.90;90.00;;;;;;5047580;28;20449;-74
2023/09/16 08:53:43;;;;;;;4.57;4.27;;;20.90;90.00;;;;;;5024827;28;20453;-74
2023/09/16 08:56:13;;;;;;;4.50;4.20;;;21.00;90.10;;;;;;5025377;28;20440;-67
2023/09/16 08:58:40;;;;;;;4.93;4.53;;;21.00;90.00;;;;;;5041311;28;20444;-73
2023/09/16 09:01:07;;;;;;;4.50;4.20;;;21.00;90.10;;;;;;5041136;28;20552;-76
2023/09/16 09:03:38;;;;;;;4.40;4.03;;;21.00;90.20;;;;;;5059097;28;20667;-74
2023/09/16 09:06:06;;;;;;;5.30;4.80;;;21.00;90.10;;;;;;5057399;28;20448;-72
2023/09/16 09:08:33;;;;;;;4.23;3.93;;;21.00;90.20;;;;;;5025514;28;20458;-73
2023/09/16 09:11:02;;;;;;;4.57;4.27;;;21.10;90.30;;;;;;5041865;28;20508;-73
2023/09/16 09:13:29;;;;;;;7.07;4.90;;;21.10;90.20;;;;;;5059382;28;20427;-73
2023/09/16 09:15:59;;;;;;;5.40;5.00;;;21.10;91.30;;;;;;5022976;28;20457;-71
2023/09/16 09:18:32;;;;;;;12.13;5.40;;;21.10;91.20;;;;;;5038894;28;20449;-72
2023/09/16 09:21:04;;;;;;;8.10;5.10;;;21.20;91.00;;;;;;5034523;28;20480;-73
2023/09/16 09:23:33;;;;;;;5.00;4.60;;;21.20;91.00;;;;;;5022930;28;20520;-73
2023/09/16 09:26:04;;;;;;;5.70;4.50;;;21.30;90.90;;;;;;5021262;28;20494;-73
2023/09/16 09:28:33;;;;;;;6.57;5.13;;;21.30;90.80;;;;;;5023590;28;20454;-73
2023/09/16 09:31:00;;;;;;;6.83;6.13;;;21.30;90.80;;;;;;5056886;28;20817;-72
2023/09/16 09:33:30;;;;;;;6.73;4.97;;;21.30;90.60;;;;;;5039263;28;20482;-73
2023/09/16 09:36:14;;;;;;;4.60;4.20;;;21.30;90.60;;;;;;5038552;28;20472;-74
2023/09/16 09:38:47;;;;;;;6.80;6.10;;;21.40;90.70;;;;;;5056990;28;20486;-72
2023/09/16 09:41:15;;;;;;;5.10;4.70;;;21.40;90.70;;;;;;5049102;28;20568;-73
2023/09/16 09:43:44;;;;;;;5.20;4.80;;;21.40;90.60;;;;;;5039304;28;20520;-73
2023/09/16 09:46:11;;;;;;;5.50;5.00;;;21.40;90.60;;;;;;5039009;28;21122;-74
2023/09/16 09:48:39;;;;;;;6.17;5.67;;;21.40;90.60;;;;;;5039084;28;20444;-73
2023/09/16 09:51:11;;;;;;;5.57;5.07;;;21.50;90.70;;;;;;5011531;28;20563;-73
2023/09/16 09:53:37;;;;;;;5.80;5.30;;;21.50;90.70;;;;;;5048010;28;20479;-74
2023/09/16 09:56:03;;;;;;;5.57;4.93;;;21.50;90.70;;;;;;5039408;28;20527;-72
2023/09/16 09:58:33;;;;;;;6.53;5.60;;;21.50;92.40;;;;;;5038721;28;20455;-72
2023/09/16 10:00:59;;;;;;;6.43;4.80;;;21.60;94.10;;;;;;5003036;28;20492;-73
2023/09/16 10:03:27;;;;;;;5.53;5.13;;;21.70;95.00;;;;;;5052167;28;20501;-73
2023/09/16 10:05:53;;;;;;;5.53;5.13;;;21.80;94.70;;;;;;5038471;28;20522;-74
2023/09/16 10:08:21;;;;;;;5.93;5.43;;;21.90;94.80;;;;;;5035856;28;20464;-72
2023/09/16 10:10:49;;;;;;;6.27;5.67;;;22.00;94.90;;;;;;5003099;28;20450;-72
2023/09/16 10:13:16;;;;;;;7.00;6.30;;;22.00;94.80;;;;;;5040079;28;20448;-74
2023/09/16 10:15:42;;;;;;;7.17;6.37;;;22.20;95.00;;;;;;5022093;28;20434;-75
2023/09/16 10:18:08;;;;;;;6.07;5.50;;;22.30;94.70;;;;;;5035243;28;20458;-72
2023/09/16 10:20:40;;;;;;;6.13;5.63;;;22.50;94.30;;;;;;5017733;28;20457;-74
2023/09/16 10:23:08;;;;;;;6.67;6.17;;;22.60;94.00;;;;;;5013963;28;20995;-72
2023/09/16 10:25:37;;;;;;;7.20;5.23;;;22.60;93.70;;;;;;5037473;28;20610;-74
2023/09/16 10:28:05;;;;;;;6.17;5.67;;;22.70;94.40;;;;;;5035473;28;20456;-69
2023/09/16 10:30:33;;;;;;;6.73;6.03;;;22.80;93.80;;;;;;5033826;28;20504;-69
2023/09/16 10:33:05;;;;;;;5.70;5.20;;;22.90;93.70;;;;;;5034192;28;20472;-70
2023/09/16 10:35:40;;;;;;;6.87;6.27;;;23.00;93.50;;;;;;5042401;28;20445;-71
2023/09/16 10:38:08;;;;;;;6.23;5.60;;;23.10;93.30;;;;;;5036813;28;20425;-70
2023/09/16 10:40:35;;;;;;;5.97;5.47;;;23.20;93.30;;;;;;5023933;28;20627;-71
2023/09/16 10:43:04;;;;;;;6.50;5.83;;;23.20;93.10;;;;;;5042474;28;20505;-71
2023/09/16 10:45:39;;;;;;;8.50;6.50;;;23.30;93.10;;;;;;5042711;28;20528;-69
2023/09/16 10:48:08;;;;;;;6.70;6.20;;;23.30;93.40;;;;;;5036231;28;20461;-70
2023/09/16 10:50:37;;;;;;;6.47;5.87;;;23.30;93.10;;;;;;5017557;28;20458;-77
2023/09/16 10:53:11;;;;;;;7.60;6.90;;;23.30;93.00;;;;;;5061700;28;20924;-72
2023/09/16 10:56:01;;;;;;;7.30;5.77;;;23.40;92.90;;;;;;5033457;28;20476;-75
2023/09/16 10:58:41;;;;;;;6.90;6.30;;;23.40;92.80;;;;;;5026067;28;20556;-76
2023/09/16 11:01:09;;;;;;;8.87;7.00;;;23.40;93.20;;;;;;5049833;28;20471;-76
2023/09/16 11:03:46;;;;;;;6.57;5.97;;;23.50;93.40;;;;;;5012721;28;20521;-76
2023/09/16 11:06:12;;;;;;;6.97;6.30;;;23.50;93.70;;;;;;5028188;28;20526;-75
2023/09/16 11:08:39;;;;;;;6.53;5.97;;;23.50;93.70;;;;;;5027292;28;20445;-73
2023/09/16 11:11:07;;;;;;;7.17;6.57;;;23.60;93.60;;;;;;5032907;28;20480;-76
2023/09/16 11:13:33;;;;;;;6.40;5.90;;;23.60;93.70;;;;;;5061466;28;20424;-77
2023/09/16 11:16:00;;;;;;;6.97;6.00;;;23.70;93.70;;;;;;5016043;28;20512;-77
2023/09/16 11:18:31;;;;;;;6.90;6.40;;;23.80;93.70;;;;;;5017724;28;20480;-76
2023/09/16 11:21:04;;;;;;;7.00;6.30;;;23.90;93.40;;;;;;5028600;28;21019;-77
2023/09/16 11:27:07;;;;;;;7.10;6.60;;;24.00;92.30;;;;;;5032226;28;20432;-76
2023/09/16 11:30:11;;;;;;;6.63;6.03;;;24.00;92.30;;;;;;5032837;28;20770;-76
2023/09/16 11:32:58;;;;;;;6.60;6.00;;;24.10;92.50;;;;;;5048870;28;20754;-76
2023/09/16 11:35:28;;;;;;;8.00;7.10;;;24.10;92.20;;;;;;5019931;28;20439;-77
2023/09/16 11:37:55;;;;;;;6.50;6.10;;;24.10;92.10;;;;;;5051042;28;20415;-77
2023/09/16 11:40:28;;;;;;;6.90;6.30;;;24.20;92.20;;;;;;5026621;28;20445;-76
2023/09/16 11:43:00;;;;;;;6.77;6.10;;;24.20;91.90;;;;;;5050848;28;20464;-77
2023/09/16 11:45:32;;;;;;;7.03;6.43;;;24.30;91.80;;;;;;5067308;28;20433;-76
2023/09/16 11:48:07;;;;;;;7.60;6.40;;;24.20;91.80;;;;;;5035684;28;20502;-77
2023/09/16 11:50:37;;;;;;;7.47;6.13;;;24.30;91.90;;;;;;5050931;28;20453;-76
2023/09/16 11:53:04;;;;;;;7.37;6.67;;;24.30;91.80;;;;;;5063478;28;20840;-77
2023/09/16 11:55:30;;;;;;;9.97;7.80;;;24.40;92.00;;;;;;5034570;28;20963;-77
2023/09/16 11:58:31;;;;;;;7.20;6.60;;;24.40;92.50;;;;;;5051463;28;20461;-77
2023/09/16 12:01:04;;;;;;;6.40;5.80;;;24.50;92.10;;;;;;5050989;28;20460;-76
2023/09/16 12:03:30;;;;;;;7.27;6.70;;;24.60;92.20;;;;;;5052062;28;20610;-76
2023/09/16 12:06:00;;;;;;;8.10;7.33;;;24.60;91.80;;;;;;5031834;28;20757;-77
2023/09/16 12:08:29;;;;;;;6.93;6.13;;;24.60;92.10;;;;;;5028088;28;20472;-76
2023/09/16 12:10:56;;;;;;;7.17;6.30;;;24.70;91.50;;;;;;5043661;28;20446;-74
2023/09/16 12:13:31;;;;;;;8.00;7.03;;;24.70;91.70;;;;;;5059584;28;20451;-73
2023/09/16 12:15:58;;;;;;;7.07;6.47;;;24.80;91.70;;;;;;5040564;28;20424;-74
2023/09/16 12:18:25;;;;;;;6.33;5.83;;;24.80;91.50;;;;;;5037097;28;20448;-73
2023/09/16 12:20:54;;;;;;;7.13;6.60;;;24.90;91.30;;;;;;5057999;28;21042;-74
2023/09/16 12:23:20;;;;;;;7.13;6.63;;;24.90;90.90;;;;;;5040261;28;20442;-74
2023/09/16 12:25:47;;;;;;;6.97;6.43;;;25.00;91.20;;;;;;5041119;28;20444;-74
2023/09/16 12:28:23;;;;;;;7.47;6.90;;;25.10;91.20;;;;;;5039920;28;20471;-74
2023/09/16 12:30:52;;;;;;;7.13;6.53;;;25.10;91.30;;;;;;5021010;28;20895;-74
2023/09/16 12:33:19;;;;;;;7.87;7.17;;;25.10;91.50;;;;;;5024782;28;20518;-73
2023/09/16 12:35:49;;;;;;;6.90;6.20;;;25.10;90.70;;;;;;5040279;28;20444;-74
2023/09/16 12:38:18;;;;;;;7.50;6.80;;;25.20;91.20;;;;;;5040595;28;21115;-74
2023/09/16 12:40:49;;;;;;;7.13;6.60;;;25.20;91.90;;;;;;5023069;28;20493;-74
2023/09/16 12:43:18;;;;;;;6.87;6.37;;;25.20;91.60;;;;;;5041370;28;20984;-74
2023/09/16 12:45:44;;;;;;;7.60;6.90;;;25.30;91.70;;;;;;5025357;28;21044;-72
2023/09/16 12:48:12;;;;;;;7.03;6.43;;;25.40;91.40;;;;;;5064396;28;20414;-71
2023/09/16 12:50:39;;;;;;;7.27;6.67;;;25.40;92.00;;;;;;5026673;28;20991;-73
2023/09/16 12:53:07;;;;;;;7.30;6.80;;;25.40;91.60;;;;;;5062024;28;20436;-73
2023/09/16 12:55:39;;;;;;;7.63;7.03;;;25.60;91.60;;;;;;5027486;28;20513;-72
2023/09/16 12:58:07;;;;;;;7.60;6.90;;;25.50;92.40;;;;;;5063348;28;20431;-73
2023/09/16 13:00:33;;;;;;;8.10;7.50;;;25.60;92.90;;;;;;5017362;28;20449;-73